createdAt,value
2018-02-22T00:00:26.589Z,51.50
2018-02-22T00:02:54.809Z,51.60
2018-02-22T00:05:22.505Z,51.60
2018-02-22T00:07:49.944Z,51.60
2018-02-22T00:10:17.478Z,51.60
2018-02-22T00:12:44.985Z,51.60
2018-02-22T00:15:12.937Z,51.50
2018-02-22T00:17:40.498Z,51.40
2018-02-22T00:20:08.246Z,51.50
2018-02-22T00:22:35.700Z,51.50
2018-02-22T00:25:03.384Z,51.60
2018-02-22T00:27:31.048Z,51.60
2018-02-22T00:29:59.296Z,51.70
2018-02-22T00:32:26.773Z,51.60
2018-02-22T00:34:54.704Z,51.60
2018-02-22T00:37:22.173Z,51.80
2018-02-22T00:39:50.029Z,51.80
2018-02-22T00:42:17.468Z,51.90
2018-02-22T00:44:44.948Z,52.00
2018-02-22T00:47:13.078Z,52.00
2018-02-22T00:49:41.359Z,52.20
2018-02-22T00:52:09.188Z,52.20
2018-02-22T00:54:38.791Z,52.30
2018-02-22T00:57:06.233Z,52.20
2018-02-22T00:59:33.730Z,52.30
2018-02-22T01:02:02.499Z,53.10
2018-02-22T01:04:30.160Z,53.10
2018-02-22T01:06:58.231Z,53.10
2018-02-22T01:09:27.286Z,52.70
2018-02-22T01:11:54.782Z,52.60
2018-02-22T01:14:23.263Z,52.30
2018-02-22T01:16:50.701Z,52.20
2018-02-22T01:19:18.376Z,52.00
2018-02-22T01:21:46.040Z,52.30
2018-02-22T01:24:13.997Z,52.40
2018-02-22T01:26:41.452Z,52.50
2018-02-22T01:29:08.923Z,52.70
2018-02-22T01:31:36.392Z,52.80
2018-02-22T01:34:05.357Z,53.00
2018-02-22T01:36:33.133Z,53.00
2018-02-22T01:39:00.785Z,53.70
2018-02-22T01:41:28.580Z,53.90
2018-02-22T01:43:56.816Z,53.60
2018-02-22T01:46:24.260Z,53.60
2018-02-22T01:48:51.738Z,53.60
2018-02-22T01:51:19.218Z,53.70
2018-02-22T01:53:47.068Z,53.80
2018-02-22T01:56:15.052Z,53.90
2018-02-22T01:58:43.304Z,54.30
2018-02-22T02:01:10.787Z,54.00
2018-02-22T02:03:39.044Z,54.80
2018-02-22T02:06:06.495Z,54.20
2018-02-22T02:08:34.001Z,54.40
2018-02-22T02:11:01.920Z,54.50
2018-02-22T02:13:29.396Z,54.60
2018-02-22T02:15:58.059Z,54.70
2018-02-22T02:18:25.896Z,54.60
2018-02-22T02:20:53.361Z,54.70
2018-02-22T02:23:21.055Z,54.80
2018-02-22T02:25:48.704Z,54.80
2018-02-22T02:28:16.375Z,54.80
2018-02-22T02:30:43.828Z,54.90
2018-02-22T02:33:11.618Z,55.10
2018-02-22T02:35:40.268Z,55.30
2018-02-22T02:38:07.754Z,55.10
2018-02-22T02:40:36.416Z,55.30
2018-02-22T02:43:03.908Z,55.30
2018-02-22T02:45:32.551Z,55.30
2018-02-22T02:48:00.066Z,55.30
2018-02-22T02:50:27.517Z,55.30
2018-02-22T02:52:55.442Z,55.20
2018-02-22T02:55:23.134Z,55.20
2018-02-22T02:57:51.376Z,55.30
2018-02-22T03:00:19.598Z,55.40
2018-02-22T03:02:47.403Z,55.40
2018-02-22T03:05:14.881Z,55.40
2018-02-22T03:07:42.628Z,55.40
2018-02-22T03:10:10.094Z,55.40
2018-02-22T03:12:37.591Z,55.40
2018-02-22T03:15:06.139Z,55.30
2018-02-22T03:17:33.614Z,55.40
2018-02-22T03:20:02.482Z,55.30
2018-02-22T03:22:30.065Z,55.30
2018-02-22T03:24:58.920Z,55.30
2018-02-22T03:27:26.416Z,55.20
2018-02-22T03:29:54.629Z,55.20
2018-02-22T03:32:22.100Z,55.20
2018-02-22T03:34:50.297Z,55.30
2018-02-22T03:37:17.737Z,55.30
2018-02-22T03:39:45.772Z,55.30
2018-02-22T03:42:13.237Z,55.30
2018-02-22T03:44:40.734Z,55.40
2018-02-22T03:47:08.957Z,55.50
2018-02-22T03:49:36.438Z,55.50
2018-02-22T03:52:04.361Z,55.50
2018-02-22T03:54:33.869Z,55.70
2018-02-22T03:57:02.558Z,55.70
2018-02-22T03:59:30.790Z,55.70
2018-02-22T04:01:58.236Z,55.70
2018-02-22T04:04:25.775Z,55.90
2018-02-22T04:06:53.226Z,55.90
2018-02-22T04:09:20.976Z,56.00
2018-02-22T04:11:48.800Z,56.00
2018-02-22T04:14:16.671Z,56.10
2018-02-22T04:16:44.187Z,56.20
2018-02-22T04:19:11.645Z,56.30
2018-02-22T04:21:39.620Z,56.30
2018-02-22T04:24:07.136Z,56.20
2018-02-22T04:26:35.365Z,56.30
2018-02-22T04:29:03.233Z,56.30
2018-02-22T04:31:30.686Z,56.30
2018-02-22T04:33:58.460Z,56.40
2018-02-22T04:36:26.134Z,56.60
2018-02-22T04:38:54.200Z,56.60
2018-02-22T04:41:21.648Z,56.60
2018-02-22T04:43:49.518Z,56.70
2018-02-22T04:46:17.649Z,56.70
2018-02-22T04:48:45.226Z,56.80
2018-02-22T04:51:13.443Z,57.00
2018-02-22T04:53:40.953Z,56.90
2018-02-22T04:56:09.008Z,57.00
2018-02-22T04:58:36.484Z,57.10
2018-02-22T05:01:04.241Z,57.10
2018-02-22T05:03:31.709Z,57.20
2018-02-22T05:05:59.182Z,57.20
2018-02-22T05:08:26.645Z,57.40
2018-02-22T05:10:54.124Z,57.40
2018-02-22T05:13:22.410Z,57.60
2018-02-22T05:15:51.181Z,57.60
2018-02-22T05:18:19.397Z,57.90
2018-02-22T05:20:46.843Z,57.50
2018-02-22T05:23:14.456Z,57.60
2018-02-22T05:25:41.900Z,57.60
2018-02-22T05:28:09.381Z,57.70
2018-02-22T05:30:37.437Z,57.80
2018-02-22T05:33:04.908Z,58.00
2018-02-22T05:35:32.868Z,57.80
2018-02-22T05:38:00.313Z,57.80
2018-02-22T05:40:28.593Z,57.90
2018-02-22T05:42:56.049Z,57.80
2018-02-22T05:45:23.715Z,57.80
2018-02-22T05:47:51.215Z,57.80
2018-02-22T05:50:18.686Z,57.80
2018-02-22T05:52:46.694Z,57.80
2018-02-22T05:55:14.604Z,57.80
2018-02-22T05:57:42.182Z,57.80
2018-02-22T06:00:09.667Z,57.80
2018-02-22T06:02:37.137Z,57.80
2018-02-22T06:05:05.114Z,57.80
2018-02-22T06:07:34.064Z,57.90
2018-02-22T06:10:01.779Z,57.80
2018-02-22T06:12:30.020Z,58.00
2018-02-22T06:14:57.501Z,58.00
2018-02-22T06:17:24.985Z,58.10
2018-02-22T06:19:53.200Z,58.10
2018-02-22T06:22:20.680Z,58.10
2018-02-22T06:24:48.130Z,58.10
2018-02-22T06:27:15.892Z,58.20
2018-02-22T06:29:43.340Z,58.10
2018-02-22T06:32:10.945Z,58.20
2018-02-22T06:34:40.014Z,58.20
2018-02-22T06:37:07.526Z,58.10
2018-02-22T06:39:35.524Z,58.20
2018-02-22T06:42:02.988Z,58.30
2018-02-22T06:44:30.504Z,58.20
2018-02-22T06:46:58.324Z,58.30
2018-02-22T06:49:25.765Z,58.40
2018-02-22T06:51:53.240Z,58.40
2018-02-22T06:54:22.353Z,58.50
2018-02-22T06:56:50.559Z,58.50
2018-02-22T06:59:19.190Z,58.50
2018-02-22T07:01:46.803Z,58.50
2018-02-22T07:04:14.265Z,58.40
2018-02-22T07:06:41.716Z,58.60
2018-02-22T07:09:09.278Z,58.80
2018-02-22T07:11:36.973Z,58.60
2018-02-22T07:14:05.155Z,58.60
2018-02-22T07:16:32.624Z,58.70
2018-02-22T07:19:02.742Z,58.90
2018-02-22T07:21:31.709Z,58.50
2018-02-22T07:23:59.160Z,58.80
2018-02-22T07:26:26.953Z,58.90
2018-02-22T07:28:54.427Z,59.00
2018-02-22T07:31:23.073Z,59.00
2018-02-22T07:33:51.192Z,59.00
2018-02-22T07:36:19.126Z,59.00
2018-02-22T07:38:46.622Z,59.70
2018-02-22T07:41:14.451Z,59.10
2018-02-22T07:43:42.400Z,59.30
2018-02-22T07:46:09.855Z,59.30
2018-02-22T07:48:37.306Z,59.20
2018-02-22T07:51:05.289Z,59.30
2018-02-22T07:53:32.738Z,59.30
2018-02-22T07:56:00.446Z,59.40
2018-02-22T07:58:29.196Z,59.50
2018-02-22T08:00:56.718Z,59.40
2018-02-22T08:03:24.192Z,59.30
2018-02-22T08:05:52.433Z,59.40
2018-02-22T08:08:19.884Z,59.40
2018-02-22T08:10:47.596Z,59.40
2018-02-22T08:13:15.253Z,59.30
2018-02-22T08:15:44.745Z,59.30
2018-02-22T08:18:12.208Z,59.30
2018-02-22T08:20:39.662Z,59.30
2018-02-22T08:23:07.204Z,59.30
2018-02-22T08:25:34.845Z,59.30
2018-02-22T08:28:02.379Z,59.10
2018-02-22T08:30:30.604Z,59.20
2018-02-22T08:32:58.071Z,59.10
2018-02-22T08:35:26.783Z,59.30
2018-02-22T08:37:54.737Z,59.30
2018-02-22T08:40:22.519Z,59.20
2018-02-22T08:42:50.075Z,59.10
2018-02-22T08:45:17.532Z,59.20
2018-02-22T08:47:45.092Z,59.00
2018-02-22T08:50:13.423Z,59.00
2018-02-22T08:52:40.910Z,59.10
2018-02-22T08:55:08.789Z,59.10
2018-02-22T08:57:36.866Z,58.80
2018-02-22T09:00:04.525Z,58.90
2018-02-22T09:02:32.005Z,58.90
2018-02-22T09:04:59.452Z,58.50
2018-02-22T09:07:27.672Z,57.90
2018-02-22T09:09:55.175Z,57.90
2018-02-22T09:12:22.608Z,57.70
2018-02-22T09:14:50.119Z,57.50
2018-02-22T09:17:17.726Z,57.30
2018-02-22T09:19:45.171Z,57.40
2018-02-22T09:22:12.644Z,56.90
2018-02-22T09:24:40.144Z,56.10
2018-02-22T09:27:07.588Z,55.60
2018-02-22T09:29:35.831Z,54.50
2018-02-22T09:32:03.277Z,54.50
2018-02-22T09:34:31.458Z,54.10
2018-02-22T09:36:59.374Z,54.20
2018-02-22T09:39:27.923Z,53.60
2018-02-22T09:41:55.361Z,53.60
2018-02-22T09:44:22.829Z,52.60
2018-02-22T09:46:51.049Z,52.70
2018-02-22T09:49:18.629Z,52.70
2018-02-22T09:51:46.665Z,52.60
2018-02-22T09:54:15.429Z,51.80
2018-02-22T09:56:43.308Z,51.80
2018-02-22T09:59:11.953Z,50.10
2018-02-22T10:01:39.400Z,50.10
2018-02-22T10:04:06.947Z,50.30
2018-02-22T10:06:34.384Z,50.30
2018-02-22T10:09:01.823Z,49.20
2018-02-22T10:11:30.104Z,49.40
2018-02-22T10:13:58.344Z,48.60
2018-02-22T10:16:25.790Z,48.60
2018-02-22T10:18:53.441Z,48.80
2018-02-22T10:21:20.881Z,47.70
2018-02-22T10:23:48.474Z,47.80
2018-02-22T10:26:15.926Z,48.00
2018-02-22T10:28:43.394Z,47.80
2018-02-22T10:31:11.355Z,47.60
2018-02-22T10:33:39.360Z,47.50
2018-02-22T10:36:07.199Z,47.90
2018-02-22T10:38:34.659Z,47.40
2018-02-22T10:41:02.624Z,47.70
2018-02-22T10:43:30.378Z,45.90
2018-02-22T10:45:57.821Z,45.90
2018-02-22T10:48:25.399Z,44.80
2018-02-22T10:50:53.737Z,44.00
2018-02-22T10:53:21.191Z,43.80
2018-02-22T10:55:49.204Z,42.50
2018-02-22T10:58:17.169Z,42.40
2018-02-22T11:00:50.461Z,42.80
2018-02-22T11:03:17.962Z,43.00
2018-02-22T11:05:45.992Z,43.60
2018-02-22T11:08:13.457Z,42.60
2018-02-22T11:10:41.088Z,42.80
2018-02-22T11:13:08.525Z,43.20
2018-02-22T11:15:36.240Z,41.30
2018-02-22T11:18:03.711Z,41.30
2018-02-22T11:20:32.058Z,40.90
2018-02-22T11:22:59.973Z,40.80
2018-02-22T11:25:27.789Z,42.00
2018-02-22T11:27:55.258Z,40.80
2018-02-22T11:30:24.204Z,39.60
2018-02-22T11:32:51.777Z,39.60
2018-02-22T11:35:19.678Z,38.80
2018-02-22T11:37:47.880Z,39.40
2018-02-22T11:40:15.712Z,39.30
2018-02-22T11:42:44.118Z,39.40
2018-02-22T11:45:13.206Z,37.70
2018-02-22T11:47:41.435Z,37.10
2018-02-22T11:50:09.571Z,37.00
2018-02-22T11:52:37.022Z,37.50
2018-02-22T11:55:04.964Z,36.70
2018-02-22T11:57:33.637Z,36.60
2018-02-22T12:00:01.140Z,36.50
2018-02-22T12:02:28.589Z,37.00
2018-02-22T12:04:56.052Z,35.80
2018-02-22T12:07:24.176Z,36.80
2018-02-22T12:09:52.970Z,37.10
2018-02-22T12:12:20.613Z,37.40
2018-02-22T12:14:48.098Z,36.70
2018-02-22T12:17:15.669Z,35.80
2018-02-22T12:19:43.916Z,35.70
2018-02-22T12:22:12.258Z,35.20
2018-02-22T12:24:39.805Z,36.10
2018-02-22T12:27:07.810Z,35.10
2018-02-22T12:29:35.322Z,35.20
2018-02-22T12:32:02.833Z,35.20
2018-02-22T12:34:31.936Z,34.00
2018-02-22T12:36:59.420Z,34.70
2018-02-22T12:39:28.235Z,34.10
2018-02-22T12:41:55.732Z,34.00
2018-02-22T12:44:23.212Z,33.10
2018-02-22T12:46:51.595Z,32.80
2018-02-22T12:49:19.845Z,33.50
2018-02-22T12:51:48.070Z,33.40
2018-02-22T12:54:16.289Z,33.90
2018-02-22T12:56:43.756Z,34.20
2018-02-22T12:59:12.598Z,33.40
2018-02-22T13:01:40.170Z,32.80
2018-02-22T13:04:09.714Z,31.50
2018-02-22T13:06:38.031Z,31.90
2018-02-22T13:09:05.742Z,30.90
2018-02-22T13:11:33.967Z,31.20
2018-02-22T13:14:01.457Z,31.80
2018-02-22T13:16:29.487Z,31.20
2018-02-22T13:18:57.716Z,32.60
2018-02-22T13:21:25.307Z,32.60
2018-02-22T13:23:54.597Z,32.20
2018-02-22T13:26:22.755Z,32.10
2018-02-22T13:28:50.341Z,32.00
2018-02-22T13:31:18.725Z,32.50
2018-02-22T13:34:00.143Z,32.70
2018-02-22T13:36:27.984Z,32.60
2018-02-22T13:39:12.821Z,32.30
2018-02-22T13:41:40.349Z,32.90
2018-02-22T13:44:20.066Z,33.70
2018-02-22T13:46:47.519Z,32.80
2018-02-22T13:49:27.118Z,31.60
2018-02-22T13:51:54.607Z,32.20
2018-02-22T13:54:23.038Z,32.00
2018-02-22T13:57:02.476Z,32.60
2018-02-22T13:59:30.731Z,32.10
2018-02-22T14:02:09.917Z,32.00
2018-02-22T14:04:38.220Z,31.50
2018-02-22T14:07:06.326Z,31.50
2018-02-22T14:09:34.448Z,32.20
2018-02-22T14:12:02.347Z,32.20
2018-02-22T14:14:29.854Z,31.10
2018-02-22T14:16:58.359Z,29.40
2018-02-22T14:19:25.801Z,29.40
2018-02-22T14:21:54.313Z,30.00
2018-02-22T14:24:21.819Z,30.00
2018-02-22T14:26:49.346Z,30.90
2018-02-22T14:29:16.836Z,31.30
2018-02-22T14:31:46.280Z,30.60
2018-02-22T14:34:14.239Z,30.50
2018-02-22T14:36:42.254Z,29.70
2018-02-22T14:39:10.234Z,28.70
2018-02-22T14:41:37.675Z,28.50
2018-02-22T14:44:05.146Z,29.20
2018-02-22T14:46:32.581Z,29.60
2018-02-22T14:49:00.061Z,29.50
2018-02-22T14:51:29.016Z,29.10
2018-02-22T14:53:56.929Z,29.10
2018-02-22T14:56:25.714Z,29.50
2018-02-22T14:58:53.763Z,29.00
2018-02-22T15:01:21.594Z,29.10
2018-02-22T15:03:49.786Z,29.20
2018-02-22T15:06:17.257Z,29.00
2018-02-22T15:08:44.735Z,29.20
2018-02-22T15:11:12.427Z,29.50
2018-02-22T15:13:39.879Z,29.90
2018-02-22T15:16:08.317Z,29.40
2018-02-22T15:18:35.941Z,29.30
2018-02-22T15:21:03.440Z,29.50
2018-02-22T15:23:30.929Z,29.00
2018-02-22T15:25:59.232Z,29.90
2018-02-22T15:28:27.302Z,29.90
2018-02-22T15:30:54.773Z,30.00
2018-02-22T15:33:22.230Z,29.70
2018-02-22T15:35:50.055Z,29.90
2018-02-22T15:38:18.280Z,29.80
2018-02-22T15:40:46.057Z,29.80
2018-02-22T15:43:13.575Z,29.60
2018-02-22T15:45:41.138Z,31.40
2018-02-22T15:48:08.580Z,32.40
2018-02-22T15:50:36.402Z,32.50
2018-02-22T15:53:03.874Z,33.70
2018-02-22T15:55:32.535Z,34.50
2018-02-22T15:58:00.004Z,34.10
2018-02-22T16:00:27.456Z,31.60
2018-02-22T16:02:55.812Z,32.80
2018-02-22T16:05:23.303Z,32.80
2018-02-22T16:07:51.540Z,30.60
2018-02-22T16:10:18.986Z,30.60
2018-02-22T16:12:46.483Z,31.30
2018-02-22T16:15:13.945Z,31.60
2018-02-22T16:17:41.472Z,33.50
2018-02-22T16:20:08.925Z,35.10
2018-02-22T16:22:36.398Z,33.30
2018-02-22T16:25:03.890Z,33.10
2018-02-22T16:27:32.289Z,40.20
2018-02-22T16:30:00.306Z,40.20
2018-02-22T16:32:27.848Z,41.50
2018-02-22T16:34:55.973Z,35.60
2018-02-22T16:37:23.432Z,35.30
2018-02-22T16:39:51.347Z,32.80
2018-02-22T16:42:19.267Z,31.80
2018-02-22T16:44:46.737Z,32.10
2018-02-22T16:47:14.216Z,32.70
2018-02-22T16:49:41.706Z,34.40
2018-02-22T16:52:09.684Z,35.00
2018-02-22T16:54:38.970Z,36.30
2018-02-22T16:57:06.431Z,36.10
2018-02-22T16:59:34.226Z,36.60
2018-02-22T17:02:02.487Z,37.70
2018-02-22T17:04:30.694Z,38.30
2018-02-22T17:06:58.397Z,38.10
2018-02-22T17:09:25.867Z,38.70
2018-02-22T17:11:53.410Z,39.00
2018-02-22T17:14:21.142Z,39.40
2018-02-22T17:16:48.728Z,39.70
2018-02-22T17:19:16.223Z,40.00
2018-02-22T17:21:44.529Z,40.40
2018-02-22T17:24:12.001Z,40.30
2018-02-22T17:26:45.208Z,40.50
2018-02-22T17:29:18.368Z,40.70
2018-02-22T17:31:52.005Z,40.80
2018-02-22T17:34:21.098Z,41.10
2018-02-22T17:36:51.133Z,41.90
2018-02-22T17:39:25.556Z,41.60
2018-02-22T17:41:54.447Z,41.90
2018-02-22T17:44:21.895Z,41.90
2018-02-22T17:46:49.381Z,41.90
2018-02-22T17:49:17.681Z,42.00
2018-02-22T17:51:45.156Z,42.00
2018-02-22T17:54:12.616Z,42.10
2018-02-22T17:56:40.569Z,42.30
2018-02-22T17:59:08.031Z,42.30
2018-02-22T18:01:35.515Z,42.40
2018-02-22T18:04:03.058Z,42.70
2018-02-22T18:06:30.508Z,42.70
2018-02-22T18:08:58.058Z,42.80
2018-02-22T18:11:25.564Z,43.00
2018-02-22T18:13:53.827Z,43.20
2018-02-22T18:16:21.288Z,43.10
2018-02-22T18:18:48.756Z,43.30
2018-02-22T18:21:17.004Z,43.60
2018-02-22T18:23:45.205Z,43.50
2018-02-22T18:26:13.946Z,43.70
2018-02-22T18:28:41.412Z,43.70
2018-02-22T18:31:08.883Z,43.90
2018-02-22T18:33:37.057Z,44.00
2018-02-22T18:36:04.824Z,44.30
2018-02-22T18:38:38.728Z,44.60
2018-02-22T18:41:09.657Z,44.80
2018-02-22T18:43:41.048Z,44.80
2018-02-22T18:46:09.256Z,45.20
2018-02-22T18:48:36.723Z,45.20
2018-02-22T18:51:04.205Z,45.30
2018-02-22T18:53:31.662Z,45.50
2018-02-22T18:55:59.497Z,45.90
2018-02-22T18:58:26.942Z,46.10
2018-02-22T19:00:54.458Z,46.10
2018-02-22T19:03:21.895Z,46.30
2018-02-22T19:05:49.443Z,46.40
2018-02-22T19:08:17.101Z,46.60
2018-02-22T19:10:44.620Z,46.60
2018-02-22T19:13:12.070Z,46.80
2018-02-22T19:15:40.404Z,46.90
2018-02-22T19:18:07.905Z,47.30
2018-02-22T19:20:35.369Z,47.30
2018-02-22T19:23:02.836Z,47.30
2018-02-22T19:25:30.317Z,47.30
2018-02-22T19:27:57.838Z,47.80
2018-02-22T19:30:25.354Z,47.80
2018-02-22T19:32:52.793Z,47.80
2018-02-22T19:35:20.589Z,47.90
2018-02-22T19:37:49.356Z,48.20
2018-02-22T19:40:17.219Z,48.10
2018-02-22T19:42:44.676Z,48.40
2018-02-22T19:45:12.199Z,48.30
2018-02-22T19:47:39.679Z,48.40
2018-02-22T19:50:07.131Z,48.80
2018-02-22T19:52:34.704Z,48.80
2018-02-22T19:55:02.669Z,48.90
2018-02-22T19:57:30.144Z,49.20
2018-02-22T19:59:58.090Z,49.30
2018-02-22T20:02:25.536Z,49.50
2018-02-22T20:04:53.034Z,49.30
2018-02-22T20:07:20.785Z,49.30
2018-02-22T20:09:48.235Z,49.40
2018-02-22T20:12:16.207Z,49.40
2018-02-22T20:14:43.861Z,49.50
2018-02-22T20:17:11.333Z,49.30
2018-02-22T20:19:38.788Z,49.20
2018-02-22T20:22:06.296Z,49.20
2018-02-22T20:24:33.738Z,49.10
2018-02-22T20:27:01.317Z,49.00
2018-02-22T20:29:29.024Z,49.00
2018-02-22T20:31:56.476Z,49.00
2018-02-22T20:34:24.334Z,49.00
2018-02-22T20:36:51.780Z,49.20
2018-02-22T20:39:19.688Z,49.30
2018-02-22T20:41:47.892Z,49.50
2018-02-22T20:44:15.596Z,49.50
2018-02-22T20:46:43.051Z,49.60
2018-02-22T20:49:10.544Z,49.70
2018-02-22T20:51:55.412Z,49.80
2018-02-22T20:54:24.270Z,50.00
2018-02-22T20:56:52.496Z,50.00
2018-02-22T20:59:20.236Z,50.00
2018-02-22T21:01:47.678Z,50.10
2018-02-22T21:04:16.717Z,50.20
2018-02-22T21:06:44.181Z,50.20
2018-02-22T21:09:11.632Z,50.20
2018-02-22T21:11:39.153Z,50.20
2018-02-22T21:14:07.374Z,50.30
2018-02-22T21:16:34.945Z,50.20
2018-02-22T21:19:04.344Z,50.60
2018-02-22T21:21:31.844Z,50.40
2018-02-22T21:24:00.054Z,50.50
2018-02-22T21:26:27.496Z,50.50
2018-02-22T21:28:55.210Z,50.60
2018-02-22T21:31:22.694Z,50.60
2018-02-22T21:33:51.671Z,50.70
2018-02-22T21:36:21.063Z,50.70
2018-02-22T21:38:48.847Z,50.80
2018-02-22T21:41:17.407Z,50.90
2018-02-22T21:43:45.053Z,50.90
2018-02-22T21:46:12.507Z,50.90
2018-02-22T21:48:39.958Z,51.00
2018-02-22T21:51:07.685Z,51.10
2018-02-22T21:53:35.136Z,51.30
2018-02-22T21:56:03.123Z,51.30
2018-02-22T21:58:31.025Z,51.30
2018-02-22T22:00:58.477Z,51.30
2018-02-22T22:03:25.957Z,51.10
2018-02-22T22:05:53.418Z,51.20
2018-02-22T22:08:21.652Z,51.70
2018-02-22T22:10:49.179Z,51.10
2018-02-22T22:13:16.724Z,51.10
2018-02-22T22:15:45.065Z,51.30
2018-02-22T22:18:12.526Z,51.30
2018-02-22T22:20:40.064Z,51.00
2018-02-22T22:23:07.857Z,50.90
2018-02-22T22:25:35.331Z,51.00
2018-02-22T22:28:03.769Z,51.20
2018-02-22T22:30:31.214Z,51.10
2018-02-22T22:32:58.723Z,51.10
2018-02-22T22:35:27.480Z,51.20
2018-02-22T22:37:54.931Z,51.10
2018-02-22T22:40:22.699Z,51.20
2018-02-22T22:42:50.169Z,51.30
2018-02-22T22:45:17.878Z,51.30
2018-02-22T22:47:45.326Z,51.50
2018-02-22T22:50:12.935Z,51.60
2018-02-22T22:52:40.426Z,51.60
2018-02-22T22:55:08.987Z,52.10
2018-02-22T22:57:37.198Z,52.10
2018-02-22T23:00:04.686Z,52.10
2018-02-22T23:02:32.126Z,52.20
2018-02-22T23:04:59.618Z,52.10
2018-02-22T23:07:27.073Z,52.10
2018-02-22T23:09:54.641Z,52.10
2018-02-22T23:12:24.142Z,52.30
2018-02-22T23:14:51.591Z,52.30
2018-02-22T23:17:19.058Z,52.40
2018-02-22T23:19:46.535Z,52.40
2018-02-22T23:22:14.873Z,52.40
2018-02-22T23:24:42.321Z,52.40
2018-02-22T23:27:09.864Z,52.40
2018-02-22T23:29:37.307Z,52.50
2018-02-22T23:32:05.904Z,52.60
2018-02-22T23:34:33.926Z,52.70
2018-02-22T23:37:01.777Z,52.80
2018-02-22T23:39:29.692Z,53.00
2018-02-22T23:41:59.038Z,53.10
2018-02-22T23:44:26.719Z,53.30
2018-02-22T23:46:54.869Z,53.30
2018-02-22T23:49:22.374Z,53.50
2018-02-22T23:51:49.788Z,53.60
2018-02-22T23:54:19.401Z,53.90
2018-02-22T23:56:46.841Z,53.90
2018-02-22T23:59:14.321Z,54.00
